createdAt,value
2023-04-04T00:00:44.203Z,100.00
2023-04-04T00:03:15.630Z,100.00
2023-04-04T00:05:43.718Z,100.00
2023-04-04T00:08:11.302Z,100.00
2023-04-04T00:10:42.929Z,100.00
2023-04-04T00:13:11.398Z,100.00
2023-04-04T00:15:39.378Z,100.00
2023-04-04T00:18:07.606Z,100.00
2023-04-04T00:20:35.785Z,100.00
2023-04-04T00:23:03.303Z,100.00
2023-04-04T00:25:31.744Z,100.00
2023-04-04T00:28:01.196Z,100.00
2023-04-04T00:30:30.226Z,100.00
2023-04-04T00:32:58.422Z,100.00
2023-04-04T00:35:26.077Z,100.00
2023-04-04T00:37:53.728Z,100.00
2023-04-04T00:40:21.120Z,100.00
2023-04-04T00:42:48.539Z,100.00
2023-04-04T00:45:16.472Z,100.00
2023-04-04T00:47:44.500Z,100.00
2023-04-04T00:50:12.252Z,100.00
2023-04-04T00:52:39.623Z,100.00
2023-04-04T00:55:08.165Z,100.00
2023-04-04T00:57:36.170Z,100.00
2023-04-04T01:00:06.655Z,100.00
2023-04-04T01:02:35.867Z,100.00
2023-04-04T01:05:04.607Z,100.00
2023-04-04T01:07:39.918Z,100.00
2023-04-04T01:10:08.381Z,100.00
2023-04-04T01:12:36.401Z,100.00
2023-04-04T01:15:04.082Z,100.00
2023-04-04T01:17:33.332Z,100.00
2023-04-04T01:20:16.277Z,100.00
2023-04-04T01:22:48.455Z,100.00
2023-04-04T01:25:18.176Z,100.00
2023-04-04T01:27:46.464Z,100.00
2023-04-04T01:30:17.432Z,100.00
2023-04-04T01:33:02.309Z,100.00
2023-04-04T01:35:58.173Z,100.00
2023-04-04T01:38:39.345Z,100.00
2023-04-04T01:41:09.944Z,100.00
2023-04-04T01:43:37.665Z,100.00
2023-04-04T01:46:06.197Z,100.00
2023-04-04T01:48:33.639Z,100.00
2023-04-04T01:51:02.620Z,100.00
2023-04-04T01:53:30.135Z,100.00
2023-04-04T01:55:57.916Z,100.00
2023-04-04T01:58:26.270Z,100.00
2023-04-04T02:00:53.910Z,100.00
2023-04-04T02:03:21.385Z,100.00
2023-04-04T02:05:48.985Z,100.00
2023-04-04T02:08:17.299Z,100.00
2023-04-04T02:10:44.641Z,100.00
2023-04-04T02:13:12.313Z,100.00
2023-04-04T02:15:59.671Z,100.00
2023-04-04T02:18:27.107Z,100.00
2023-04-04T02:20:58.268Z,100.00
2023-04-04T02:23:25.872Z,100.00
2023-04-04T02:25:53.473Z,100.00
2023-04-04T02:28:23.256Z,100.00
2023-04-04T02:30:50.885Z,100.00
2023-04-04T02:33:20.790Z,100.00
2023-04-04T02:35:48.193Z,100.00
2023-04-04T02:38:15.694Z,100.00
2023-04-04T02:40:45.930Z,100.00
2023-04-04T02:43:13.438Z,100.00
2023-04-04T02:45:40.865Z,100.00
2023-04-04T02:48:10.765Z,100.00
2023-04-04T02:50:39.488Z,100.00
2023-04-04T02:53:07.255Z,100.00
2023-04-04T02:55:34.839Z,100.00
2023-04-04T02:58:02.368Z,100.00
2023-04-04T03:00:30.191Z,100.00
2023-04-04T03:02:58.571Z,100.00
2023-04-04T03:05:27.623Z,100.00
2023-04-04T03:07:57.914Z,100.00
2023-04-04T03:10:27.276Z,100.00
2023-04-04T03:12:54.656Z,100.00
2023-04-04T03:15:22.833Z,100.00
2023-04-04T03:17:51.921Z,100.00
2023-04-04T03:20:19.784Z,100.00
2023-04-04T03:22:48.053Z,100.00
2023-04-04T03:25:16.300Z,100.00
2023-04-04T03:27:45.613Z,100.00
2023-04-04T03:30:13.426Z,100.00
2023-04-04T03:32:41.734Z,100.00
2023-04-04T03:35:09.359Z,100.00
2023-04-04T03:37:40.346Z,100.00
2023-04-04T03:40:09.550Z,100.00
2023-04-04T03:42:36.962Z,100.00
2023-04-04T03:45:04.630Z,100.00
2023-04-04T03:47:32.160Z,100.00
2023-04-04T03:50:02.510Z,100.00
2023-04-04T03:52:30.258Z,100.00
2023-04-04T03:54:57.697Z,100.00
2023-04-04T03:57:27.326Z,100.00
2023-04-04T03:59:54.920Z,100.00
2023-04-04T04:02:26.261Z,100.00
2023-04-04T04:04:53.632Z,100.00
2023-04-04T04:07:21.617Z,100.00
2023-04-04T04:09:49.046Z,100.00
2023-04-04T04:12:16.598Z,100.00
2023-04-04T04:14:44.181Z,100.00
2023-04-04T04:17:11.954Z,100.00
2023-04-04T04:19:39.824Z,100.00
2023-04-04T04:22:07.214Z,100.00
2023-04-04T04:24:34.879Z,100.00
2023-04-04T04:27:02.342Z,100.00
2023-04-04T04:29:30.928Z,100.00
2023-04-04T04:31:59.090Z,100.00
2023-04-04T04:34:26.544Z,100.00
2023-04-04T04:36:59.489Z,100.00
2023-04-04T04:39:27.395Z,100.00
2023-04-04T04:41:54.895Z,100.00
2023-04-04T04:44:24.669Z,100.00
2023-04-04T04:46:52.236Z,100.00
2023-04-04T04:49:22.971Z,100.00
2023-04-04T04:51:50.653Z,100.00
2023-04-04T04:54:17.986Z,100.00
2023-04-04T04:56:45.690Z,100.00
2023-04-04T04:59:15.156Z,100.00
2023-04-04T05:01:43.929Z,100.00
2023-04-04T05:04:12.158Z,100.00
2023-04-04T05:06:39.591Z,100.00
2023-04-04T05:09:07.207Z,100.00
2023-04-04T05:11:34.908Z,100.00
2023-04-04T05:14:02.273Z,100.00
2023-04-04T05:16:30.043Z,100.00
2023-04-04T05:18:58.173Z,100.00
2023-04-04T05:21:25.515Z,100.00
2023-04-04T05:23:53.001Z,100.00
2023-04-04T05:26:20.428Z,100.00
2023-04-04T05:28:48.027Z,100.00
2023-04-04T05:31:15.352Z,100.00
2023-04-04T05:33:45.775Z,100.00
2023-04-04T05:36:13.608Z,100.00
2023-04-04T05:38:43.493Z,100.00
2023-04-04T05:41:11.365Z,100.00
2023-04-04T05:43:39.307Z,100.00
2023-04-04T05:46:06.812Z,100.00
2023-04-04T05:48:35.841Z,100.00
2023-04-04T05:51:03.484Z,100.00
2023-04-04T05:53:31.080Z,100.00
2023-04-04T05:55:58.948Z,100.00
2023-04-04T05:58:28.140Z,100.00
2023-04-04T06:00:55.969Z,100.00
2023-04-04T06:03:24.575Z,100.00
2023-04-04T06:05:53.139Z,100.00
2023-04-04T06:08:21.322Z,100.00
2023-04-04T06:10:48.875Z,100.00
2023-04-04T06:13:16.787Z,100.00
2023-04-04T06:15:44.934Z,100.00
2023-04-04T06:18:12.769Z,100.00
2023-04-04T06:20:40.494Z,100.00
2023-04-04T06:23:10.107Z,100.00
2023-04-04T06:25:37.995Z,100.00
2023-04-04T06:28:05.860Z,100.00
2023-04-04T06:30:36.310Z,100.00
2023-04-04T06:33:06.944Z,100.00
2023-04-04T06:35:35.206Z,100.00
2023-04-04T06:38:04.319Z,100.00
2023-04-04T06:40:34.211Z,100.00
2023-04-04T06:43:01.962Z,100.00
2023-04-04T06:45:29.682Z,100.00
2023-04-04T06:47:57.825Z,100.00
2023-04-04T06:50:25.786Z,100.00
2023-04-04T06:52:53.552Z,100.00
2023-04-04T06:55:22.728Z,100.00
2023-04-04T06:57:52.386Z,100.00
2023-04-04T07:00:20.208Z,100.00
2023-04-04T07:02:48.220Z,100.00
2023-04-04T07:05:18.208Z,100.00
2023-04-04T07:07:47.081Z,100.00
2023-04-04T07:10:15.128Z,99.39
2023-04-04T07:12:43.895Z,99.91
2023-04-04T07:15:11.810Z,97.91
2023-04-04T07:17:41.212Z,96.46
2023-04-04T07:20:09.407Z,97.79
2023-04-04T07:22:41.051Z,95.78
2023-04-04T07:25:09.769Z,95.31
2023-04-04T07:27:37.216Z,93.83
2023-04-04T07:30:05.488Z,94.50
2023-04-04T07:33:02.861Z,98.74
2023-04-04T07:35:30.516Z,93.89
2023-04-04T07:37:58.138Z,89.64
2023-04-04T07:40:27.344Z,91.12
2023-04-04T07:42:54.993Z,91.36
2023-04-04T07:45:22.769Z,90.39
2023-04-04T07:47:51.159Z,88.19
2023-04-04T07:50:20.997Z,88.66
2023-04-04T07:52:51.502Z,91.24
2023-04-04T07:55:19.847Z,88.40
2023-04-04T07:57:47.732Z,87.44
2023-04-04T08:00:21.572Z,88.25
2023-04-04T08:03:09.061Z,88.91
2023-04-04T08:05:37.187Z,85.77
2023-04-04T08:08:04.601Z,84.21
2023-04-04T08:10:40.912Z,80.51
2023-04-04T08:13:10.205Z,82.51
2023-04-04T08:15:38.552Z,81.21
2023-04-04T08:18:08.450Z,79.16
2023-04-04T08:20:35.906Z,81.31
2023-04-04T08:23:03.389Z,79.14
2023-04-04T08:25:31.038Z,77.05
2023-04-04T08:27:58.898Z,75.99
2023-04-04T08:30:26.447Z,76.08
2023-04-04T08:33:12.767Z,80.67
2023-04-04T08:35:40.449Z,79.23
2023-04-04T08:38:08.856Z,78.30
2023-04-04T08:40:38.613Z,77.11
2023-04-04T08:43:10.586Z,73.71
2023-04-04T08:45:43.380Z,75.11
2023-04-04T08:48:18.000Z,73.59
2023-04-04T08:50:46.996Z,72.63
2023-04-04T08:53:16.149Z,71.13
2023-04-04T08:55:44.258Z,71.93
2023-04-04T08:58:11.678Z,71.89
2023-04-04T09:00:40.697Z,73.49
2023-04-04T09:03:27.586Z,73.29
2023-04-04T09:05:56.839Z,74.42
2023-04-04T09:08:25.009Z,73.59
2023-04-04T09:10:53.253Z,72.74
2023-04-04T09:13:21.106Z,71.86
2023-04-04T09:15:52.134Z,76.28
2023-04-04T09:18:20.109Z,69.80
2023-04-04T09:20:50.656Z,70.59
2023-04-04T09:23:20.931Z,74.02
2023-04-04T09:28:24.164Z,73.53
2023-04-04T09:30:52.685Z,70.64
2023-04-04T09:33:24.076Z,75.66
2023-04-04T09:36:02.765Z,73.20
2023-04-04T09:38:33.730Z,72.52
2023-04-04T09:41:01.441Z,71.15
2023-04-04T09:43:31.071Z,69.58
2023-04-04T09:46:00.533Z,69.01
2023-04-04T09:48:32.438Z,71.19
2023-04-04T09:51:00.172Z,66.98
2023-04-04T09:53:28.449Z,66.75
2023-04-04T09:55:57.575Z,66.75
2023-04-04T09:58:28.472Z,67.78
2023-04-04T10:00:59.257Z,68.41
2023-04-04T10:03:28.683Z,73.79
2023-04-04T10:06:07.588Z,68.59
2023-04-04T10:08:44.121Z,73.26
2023-04-04T10:11:12.687Z,71.25
2023-04-04T10:13:42.185Z,68.96
2023-04-04T10:16:11.184Z,67.00
2023-04-04T10:18:39.895Z,70.75
2023-04-04T10:23:42.519Z,73.38
2023-04-04T10:26:10.195Z,69.37
2023-04-04T10:28:44.464Z,68.38
2023-04-04T10:31:23.718Z,68.46
2023-04-04T10:34:09.898Z,63.65
2023-04-04T10:36:49.150Z,62.44
2023-04-04T10:39:53.835Z,59.54
2023-04-04T10:42:23.599Z,60.07
2023-04-04T10:44:51.402Z,60.50
2023-04-04T10:47:26.365Z,63.04
2023-04-04T10:49:56.238Z,60.51
2023-04-04T10:52:28.778Z,60.20
2023-04-04T10:55:00.331Z,59.96
2023-04-04T10:57:29.817Z,62.98
2023-04-04T11:00:10.822Z,59.69
2023-04-04T11:02:59.600Z,57.25
2023-04-04T11:05:42.088Z,56.14
2023-04-04T11:08:14.338Z,57.51
2023-04-04T11:10:44.748Z,56.62
2023-04-04T11:13:23.814Z,59.79
2023-04-04T11:15:52.941Z,59.68
2023-04-04T11:18:45.700Z,59.54
2023-04-04T11:21:30.086Z,59.58
2023-04-04T11:24:06.735Z,60.12
2023-04-04T11:26:36.446Z,58.49
2023-04-04T11:29:08.173Z,55.73
2023-04-04T11:31:45.856Z,54.11
2023-04-04T11:34:15.285Z,56.36
2023-04-04T11:36:44.938Z,58.32
2023-04-04T11:39:24.913Z,57.87
2023-04-04T11:42:14.083Z,57.89
2023-04-04T11:44:55.970Z,57.92
2023-04-04T11:47:25.212Z,59.71
2023-04-04T11:49:54.239Z,61.96
2023-04-04T11:52:23.913Z,61.71
2023-04-04T11:54:53.390Z,60.04
2023-04-04T11:57:22.545Z,58.56
2023-04-04T11:59:51.903Z,57.33
2023-04-04T12:02:27.448Z,57.85
2023-04-04T12:04:56.224Z,56.34
2023-04-04T12:07:28.885Z,55.53
2023-04-04T12:09:57.903Z,58.58
2023-04-04T12:12:28.444Z,55.31
2023-04-04T12:15:06.240Z,55.83
2023-04-04T12:17:44.199Z,53.21
2023-04-04T12:20:11.741Z,52.49
2023-04-04T12:22:40.583Z,52.31
2023-04-04T12:25:08.698Z,50.83
2023-04-04T12:27:36.978Z,52.81
2023-04-04T12:30:07.942Z,50.84
2023-04-04T12:32:35.611Z,53.60
2023-04-04T12:35:03.893Z,53.66
2023-04-04T12:37:33.278Z,53.86
2023-04-04T12:40:02.487Z,54.60
2023-04-04T12:42:32.044Z,54.21
2023-04-04T12:45:04.109Z,54.41
2023-04-04T12:47:32.481Z,54.31
2023-04-04T12:49:59.909Z,55.53
2023-04-04T12:52:32.385Z,58.69
2023-04-04T12:55:09.463Z,56.66
2023-04-04T12:57:40.163Z,56.18
2023-04-04T13:00:09.176Z,59.53
2023-04-04T13:02:38.923Z,59.26
2023-04-04T13:05:07.924Z,61.35
2023-04-04T13:07:44.528Z,59.03
2023-04-04T13:10:16.353Z,59.66
2023-04-04T13:13:01.185Z,61.66
2023-04-04T13:15:49.347Z,61.14
2023-04-04T13:18:21.295Z,61.51
2023-04-04T13:20:49.795Z,59.49
2023-04-04T13:23:18.477Z,59.27
2023-04-04T13:25:46.781Z,59.02
2023-04-04T13:28:15.806Z,59.62
2023-04-04T13:30:49.579Z,60.29
2023-04-04T13:33:18.835Z,63.36
2023-04-04T13:35:46.759Z,64.02
2023-04-04T13:38:16.668Z,64.51
2023-04-04T13:40:44.608Z,63.71
2023-04-04T13:43:13.047Z,64.31
2023-04-04T13:45:43.503Z,65.24
2023-04-04T13:48:11.520Z,62.32
2023-04-04T13:50:43.611Z,63.03
2023-04-04T13:53:11.911Z,62.68
2023-04-04T13:56:01.432Z,63.83
2023-04-04T13:58:33.328Z,63.75
2023-04-04T14:01:07.076Z,64.02
2023-04-04T14:03:37.172Z,65.20
2023-04-04T14:06:10.483Z,67.10
2023-04-04T14:08:39.059Z,64.69
2023-04-04T14:11:06.818Z,64.68
2023-04-04T14:13:34.536Z,66.92
2023-04-04T14:16:02.167Z,66.76
2023-04-04T14:18:31.015Z,71.19
2023-04-04T14:20:58.401Z,70.80
2023-04-04T14:23:27.287Z,69.34
2023-04-04T14:25:55.166Z,68.63
2023-04-04T14:28:22.601Z,68.38
2023-04-04T14:30:51.677Z,70.13
2023-04-04T14:33:19.902Z,70.42
2023-04-04T14:35:47.386Z,71.28
2023-04-04T14:38:14.954Z,71.88
2023-04-04T14:40:48.427Z,70.97
2023-04-04T14:43:16.218Z,70.35
2023-04-04T14:45:48.608Z,70.84
2023-04-04T14:48:16.728Z,70.84
2023-04-04T14:50:45.017Z,71.59
2023-04-04T14:53:13.181Z,72.75
2023-04-04T14:55:41.757Z,71.30
2023-04-04T14:58:12.585Z,70.69
2023-04-04T15:00:40.816Z,70.11
2023-04-04T15:03:12.714Z,70.64
2023-04-04T15:05:42.665Z,72.46
2023-04-04T15:08:10.484Z,69.98
2023-04-04T15:10:38.286Z,71.11
2023-04-04T15:13:13.990Z,71.61
2023-04-04T15:15:41.764Z,72.23
2023-04-04T15:18:09.579Z,73.88
2023-04-04T15:20:42.322Z,74.78
2023-04-04T15:23:09.849Z,75.66
2023-04-04T15:25:37.307Z,76.39
2023-04-04T15:28:04.977Z,77.23
2023-04-04T15:30:33.425Z,78.56
2023-04-04T15:33:01.624Z,78.70
2023-04-04T15:35:29.365Z,78.82
2023-04-04T15:37:57.131Z,78.99
2023-04-04T15:40:24.546Z,78.85
2023-04-04T15:42:52.320Z,79.10
2023-04-04T15:45:20.982Z,80.24
2023-04-04T15:47:48.969Z,80.26
2023-04-04T15:50:16.501Z,80.66
2023-04-04T15:52:43.952Z,79.69
2023-04-04T15:55:14.484Z,80.29
2023-04-04T15:57:44.859Z,80.77
2023-04-04T16:00:14.047Z,81.05
2023-04-04T16:02:43.641Z,81.27
2023-04-04T16:05:11.593Z,81.38
2023-04-04T16:07:39.176Z,81.44
2023-04-04T16:10:08.796Z,81.02
2023-04-04T16:12:36.741Z,81.27
2023-04-04T16:15:06.164Z,81.91
2023-04-04T16:17:33.688Z,82.52
2023-04-04T16:20:01.226Z,82.02
2023-04-04T16:22:28.665Z,81.17
2023-04-04T16:24:56.049Z,81.13
2023-04-04T16:27:24.838Z,80.75
2023-04-04T16:29:55.559Z,81.08
2023-04-04T16:32:23.954Z,80.88
2023-04-04T16:34:51.373Z,81.86
2023-04-04T16:37:19.486Z,81.66
2023-04-04T16:39:48.246Z,81.82
2023-04-04T16:42:19.509Z,82.02
2023-04-04T16:44:49.088Z,82.37
2023-04-04T16:47:16.574Z,82.05
2023-04-04T16:49:44.186Z,81.80
2023-04-04T16:52:11.798Z,82.46
2023-04-04T16:54:39.373Z,83.81
2023-04-04T16:57:09.613Z,82.53
2023-04-04T16:59:37.456Z,83.44
2023-04-04T17:02:08.277Z,83.26
2023-04-04T17:04:41.122Z,85.20
2023-04-04T17:07:09.455Z,85.90
2023-04-04T17:09:37.145Z,85.75
2023-04-04T17:12:06.997Z,87.53
2023-04-04T17:14:40.104Z,86.57
2023-04-04T17:17:08.988Z,87.59
2023-04-04T17:19:37.390Z,87.55
2023-04-04T17:22:06.158Z,87.81
2023-04-04T17:24:33.657Z,89.23
2023-04-04T17:27:01.489Z,89.85
2023-04-04T17:29:30.300Z,89.26
2023-04-04T17:31:59.876Z,90.36
2023-04-04T17:34:27.459Z,90.62
2023-04-04T17:36:55.397Z,91.38
2023-04-04T17:39:22.910Z,91.48
2023-04-04T17:41:52.159Z,90.67
2023-04-04T17:44:20.642Z,90.81
2023-04-04T17:46:48.405Z,90.11
2023-04-04T17:49:20.579Z,90.21
2023-04-04T17:51:49.256Z,90.34
2023-04-04T17:54:17.544Z,89.95
2023-04-04T17:56:46.167Z,89.77
2023-04-04T17:59:14.871Z,90.85
2023-04-04T18:01:43.850Z,90.80
2023-04-04T18:04:11.310Z,90.73
2023-04-04T18:06:40.414Z,89.75
2023-04-04T18:09:10.432Z,89.90
2023-04-04T18:11:39.249Z,90.85
2023-04-04T18:14:07.020Z,90.40
2023-04-04T18:16:39.735Z,91.45
2023-04-04T18:19:10.127Z,91.96
2023-04-04T18:21:38.614Z,91.96
2023-04-04T18:24:11.903Z,93.70
2023-04-04T18:26:39.770Z,93.63
2023-04-04T18:29:07.336Z,93.08
2023-04-04T18:31:34.760Z,92.23
2023-04-04T18:34:02.536Z,93.09
2023-04-04T18:36:30.025Z,93.03
2023-04-04T18:38:57.389Z,93.08
2023-04-04T18:41:24.834Z,94.64
2023-04-04T18:43:52.291Z,94.01
2023-04-04T18:46:19.945Z,94.10
2023-04-04T18:48:47.634Z,95.11
2023-04-04T18:51:15.879Z,94.02
2023-04-04T18:53:47.117Z,95.09
2023-04-04T18:56:15.712Z,95.51
2023-04-04T18:58:43.504Z,95.66
2023-04-04T19:01:12.655Z,95.95
2023-04-04T19:03:47.646Z,96.13
2023-04-04T19:06:16.249Z,96.17
2023-04-04T19:08:44.584Z,95.69
2023-04-04T19:11:12.621Z,96.38
2023-04-04T19:13:40.120Z,96.31
2023-04-04T19:16:07.739Z,96.63
2023-04-04T19:18:35.307Z,96.63
2023-04-04T19:21:02.815Z,96.97
2023-04-04T19:23:30.866Z,97.11
2023-04-04T19:26:02.171Z,96.76
2023-04-04T19:28:33.532Z,97.11
2023-04-04T19:31:02.193Z,97.33
2023-04-04T19:33:33.292Z,97.10
2023-04-04T19:36:11.312Z,98.20
2023-04-04T19:38:42.797Z,97.89
2023-04-04T19:41:16.737Z,98.09
2023-04-04T19:43:47.118Z,97.68
2023-04-04T19:46:16.609Z,97.48
2023-04-04T19:48:49.006Z,98.70
2023-04-04T19:51:22.629Z,99.50
2023-04-04T19:53:58.896Z,99.02
2023-04-04T19:56:28.317Z,98.89
2023-04-04T19:59:06.173Z,100.00
2023-04-04T20:01:37.664Z,100.00
2023-04-04T20:04:10.160Z,100.00
2023-04-04T20:06:40.070Z,100.00
2023-04-04T20:09:12.922Z,100.00
2023-04-04T20:11:40.567Z,100.00
2023-04-04T20:14:10.292Z,100.00
2023-04-04T20:16:37.986Z,100.00
2023-04-04T20:19:08.786Z,100.00
2023-04-04T20:21:37.374Z,100.00
2023-04-04T20:24:10.073Z,100.00
2023-04-04T20:26:51.441Z,100.00
2023-04-04T20:29:22.094Z,100.00
2023-04-04T20:31:56.243Z,100.00
2023-04-04T20:34:29.527Z,100.00
2023-04-04T20:36:57.906Z,100.00
2023-04-04T20:39:58.735Z,100.00
2023-04-04T20:42:26.214Z,100.00
2023-04-04T20:45:06.422Z,100.00
2023-04-04T20:47:44.742Z,100.00
2023-04-04T20:50:19.064Z,100.00
2023-04-04T20:52:50.677Z,100.00
2023-04-04T20:55:22.846Z,100.00
2023-04-04T20:57:51.838Z,100.00
2023-04-04T21:00:26.761Z,100.00
2023-04-04T21:03:29.911Z,100.00
2023-04-04T21:06:17.013Z,100.00
2023-04-04T21:08:51.638Z,100.00
2023-04-04T21:11:30.130Z,100.00
2023-04-04T21:13:58.312Z,100.00
2023-04-04T21:16:27.536Z,100.00
2023-04-04T21:19:00.848Z,100.00
2023-04-04T21:21:29.557Z,100.00
2023-04-04T21:23:59.407Z,100.00
2023-04-04T21:26:32.972Z,100.00
2023-04-04T21:29:08.704Z,100.00
2023-04-04T21:31:41.283Z,100.00
2023-04-04T21:34:11.947Z,100.00
2023-04-04T21:36:41.407Z,100.00
2023-04-04T21:39:13.142Z,100.00
2023-04-04T21:41:43.040Z,98.78
2023-04-04T21:44:11.099Z,98.70
2023-04-04T21:46:40.526Z,99.49
2023-04-04T21:49:11.614Z,99.43
2023-04-04T21:51:40.737Z,99.62
2023-04-04T21:54:08.332Z,98.92
2023-04-04T21:56:38.553Z,100.00
2023-04-04T21:59:09.105Z,99.99
2023-04-04T22:01:37.598Z,100.00
2023-04-04T22:04:05.660Z,100.00
2023-04-04T22:06:33.128Z,100.00
2023-04-04T22:09:02.007Z,99.57
2023-04-04T22:11:30.875Z,98.91
2023-04-04T22:14:04.788Z,99.56
2023-04-04T22:16:37.018Z,99.16
2023-04-04T22:19:11.265Z,98.88
2023-04-04T22:21:39.589Z,98.75
2023-04-04T22:24:10.087Z,98.29
2023-04-04T22:26:41.752Z,98.23
2023-04-04T22:29:09.203Z,99.23
2023-04-04T22:31:37.925Z,99.36
2023-04-04T22:34:06.560Z,99.43
2023-04-04T22:36:34.653Z,99.10
2023-04-04T22:39:02.948Z,99.09
2023-04-04T22:41:30.552Z,98.83
2023-04-04T22:43:58.290Z,98.91
2023-04-04T22:46:26.781Z,97.99
2023-04-04T22:49:05.616Z,97.76
2023-04-04T22:51:45.607Z,99.95
2023-04-04T22:54:16.760Z,99.16
2023-04-04T22:56:44.745Z,97.90
2023-04-04T22:59:12.291Z,97.41
2023-04-04T23:01:40.712Z,97.49
2023-04-04T23:04:09.447Z,97.48
2023-04-04T23:06:38.541Z,97.67
2023-04-04T23:09:08.074Z,97.16
2023-04-04T23:11:36.176Z,96.90
2023-04-04T23:14:15.223Z,96.74
2023-04-04T23:16:44.519Z,97.52
2023-04-04T23:19:12.907Z,98.20
2023-04-04T23:21:40.643Z,97.95
2023-04-04T23:24:08.250Z,97.67
2023-04-04T23:26:35.786Z,97.62
2023-04-04T23:29:03.332Z,99.66
2023-04-04T23:31:31.323Z,98.93
2023-04-04T23:34:00.156Z,98.56
2023-04-04T23:36:27.720Z,99.13
2023-04-04T23:38:55.159Z,98.92
2023-04-04T23:41:23.430Z,98.55
2023-04-04T23:43:50.883Z,98.74
2023-04-04T23:46:20.012Z,98.10
2023-04-04T23:48:48.435Z,98.21
2023-04-04T23:51:19.479Z,99.22
2023-04-04T23:53:47.365Z,99.32
2023-04-04T23:56:14.781Z,100.00
2023-04-04T23:58:42.246Z,100.00
